createdAt,value
2022-10-01T00:01:53.140Z,99035.97
2022-10-01T00:04:21.784Z,99027.28
2022-10-01T00:06:50.595Z,99026.38
2022-10-01T00:09:20.600Z,99013.34
2022-10-01T00:11:49.506Z,99016.78
2022-10-01T00:14:18.505Z,99007.22
2022-10-01T00:16:47.066Z,99003.75
2022-10-01T00:19:17.188Z,98992.44
2022-10-01T00:21:45.740Z,98995.91
2022-10-01T00:24:14.943Z,98995.03
2022-10-01T00:26:45.511Z,98978.50
2022-10-01T00:29:16.514Z,98979.38
2022-10-01T00:31:45.137Z,98982.81
2022-10-01T00:34:16.131Z,98977.63
2022-10-01T00:36:44.577Z,98979.38
2022-10-01T00:39:14.133Z,98975.03
2022-10-01T00:41:43.426Z,98974.16
2022-10-01T00:44:33.869Z,98975.88
2022-10-01T00:47:13.908Z,98962.84
2022-10-01T00:49:46.506Z,98948.94
2022-10-01T00:52:20.318Z,98950.69
2022-10-01T00:54:52.192Z,98958.47
2022-10-01T00:57:24.200Z,98953.28
2022-10-01T00:59:55.446Z,98946.31
2022-10-01T01:02:24.104Z,98951.50
2022-10-01T01:04:54.119Z,98945.41
2022-10-01T01:07:23.544Z,98959.22
2022-10-01T01:09:54.335Z,98935.78
2022-10-01T01:12:41.373Z,98936.59
2022-10-01T01:15:19.519Z,98930.41
2022-10-01T01:17:57.100Z,98928.56
2022-10-01T01:20:52.645Z,98921.59
2022-10-01T01:24:15.342Z,98899.84
2022-10-01T01:27:03.854Z,98895.47
2022-10-01T01:29:40.873Z,98892.81
2022-10-01T01:32:14.897Z,98888.47
2022-10-01T01:34:49.958Z,98878.91
2022-10-01T01:37:23.336Z,98876.31
2022-10-01T01:39:54.916Z,98861.56
2022-10-01T01:42:32.236Z,98855.50
2022-10-01T01:45:05.540Z,98838.13
2022-10-01T01:47:35.762Z,98829.41
2022-10-01T01:50:07.643Z,98831.97
2022-10-01T01:52:36.948Z,98817.16
2022-10-01T01:55:08.475Z,98811.91
2022-10-01T01:57:42.523Z,98804.13
2022-10-01T02:00:14.381Z,98804.94
2022-10-01T02:02:50.291Z,98786.69
2022-10-01T02:05:24.487Z,98784.03
2022-10-01T02:08:31.239Z,98792.59
2022-10-01T02:11:21.612Z,98789.13
2022-10-01T02:14:09.082Z,98783.88
2022-10-01T02:16:50.295Z,98783.00
2022-10-01T02:19:29.647Z,98781.22
2022-10-01T02:22:01.880Z,98766.47
2022-10-01T02:24:39.137Z,98756.94
2022-10-01T02:27:13.987Z,98767.28
2022-10-01T02:29:44.888Z,98764.63
2022-10-01T02:32:17.376Z,98774.09
2022-10-01T02:34:47.190Z,98785.34
2022-10-01T02:37:17.459Z,98784.44
2022-10-01T02:39:48.027Z,98779.19
2022-10-01T02:42:19.283Z,98786.09
2022-10-01T02:44:51.322Z,98795.59
2022-10-01T02:47:25.200Z,98783.41
2022-10-01T02:49:55.473Z,98800.63
2022-10-01T02:52:32.704Z,98795.44
2022-10-01T02:55:05.661Z,98785.06
2022-10-01T02:57:33.549Z,98784.22
2022-10-01T03:00:06.729Z,98792.00
2022-10-01T03:02:39.477Z,98778.13
2022-10-01T03:05:10.145Z,98761.66
2022-10-01T03:07:40.108Z,98757.34
2022-10-01T03:10:11.139Z,98726.19
2022-10-01T03:12:42.980Z,98704.47
2022-10-01T03:15:12.490Z,98702.72
2022-10-01T03:17:42.567Z,98702.69
2022-10-01T03:20:13.497Z,98723.44
2022-10-01T03:22:42.105Z,98733.75
2022-10-01T03:25:11.124Z,98707.69
2022-10-01T03:27:39.805Z,98699.03
2022-10-01T03:30:10.152Z,98710.28
2022-10-01T03:32:38.980Z,98720.63
2022-10-01T03:35:10.464Z,98717.16
2022-10-01T03:37:39.098Z,98720.59
2022-10-01T03:40:09.275Z,98719.72
2022-10-01T03:42:37.852Z,98705.81
2022-10-01T03:45:07.030Z,98699.75
2022-10-01T03:47:35.455Z,98711.88
2022-10-01T03:50:04.148Z,98702.38
2022-10-01T03:52:34.125Z,98703.25
2022-10-01T03:55:02.620Z,98696.34
2022-10-01T03:57:31.362Z,98690.31
2022-10-01T03:59:59.773Z,98687.69
2022-10-01T04:02:29.803Z,98673.81
2022-10-01T04:04:58.397Z,98655.63
2022-10-01T04:07:27.229Z,98640.09
2022-10-01T04:09:57.454Z,98618.44
2022-10-01T04:12:26.378Z,98610.63
2022-10-01T04:14:54.972Z,98603.63
2022-10-01T04:17:23.708Z,98626.09
2022-10-01T04:19:52.170Z,98600.94
2022-10-01T04:22:20.710Z,98606.97
2022-10-01T04:24:49.211Z,98600.00
2022-10-01T04:27:19.687Z,98601.72
2022-10-01T04:29:48.666Z,98606.00
2022-10-01T04:32:22.256Z,98595.59
2022-10-01T04:34:53.791Z,98597.25
2022-10-01T04:37:23.358Z,98598.94
2022-10-01T04:39:51.989Z,98592.91
2022-10-01T04:42:22.740Z,98606.81
2022-10-01T04:44:51.302Z,98626.72
2022-10-01T04:47:19.748Z,98622.38
2022-10-01T04:49:48.291Z,98586.91
2022-10-01T04:52:16.809Z,98582.59
2022-10-01T04:54:45.446Z,98576.53
2022-10-01T04:57:13.908Z,98588.63
2022-10-01T04:59:43.722Z,98604.25
2022-10-01T05:02:12.278Z,98600.81
2022-10-01T05:04:41.152Z,98599.97
2022-10-01T05:07:09.860Z,98589.53
2022-10-01T05:09:38.705Z,98587.81
2022-10-01T05:12:08.362Z,98577.47
2022-10-01T05:14:36.779Z,98571.44
2022-10-01T05:17:07.169Z,98580.13
2022-10-01T05:19:35.867Z,98587.84
2022-10-01T05:22:04.420Z,98587.00
2022-10-01T05:24:32.957Z,98584.44
2022-10-01T05:27:01.368Z,98582.75
2022-10-01T05:29:29.920Z,98605.28
2022-10-01T05:31:59.790Z,98600.13
2022-10-01T05:34:29.750Z,98599.25
2022-10-01T05:36:58.596Z,98599.22
2022-10-01T05:39:27.437Z,98608.72
2022-10-01T05:41:56.525Z,98613.91
2022-10-01T05:44:25.649Z,98625.19
2022-10-01T05:46:54.611Z,98632.09
2022-10-01T05:49:26.540Z,98646.84
2022-10-01T05:51:56.434Z,98646.00
2022-10-01T05:54:25.112Z,98649.50
2022-10-01T05:56:53.580Z,98659.88
2022-10-01T05:59:22.160Z,98664.19
2022-10-01T06:01:50.750Z,98662.47
2022-10-01T06:04:19.281Z,98670.28
2022-10-01T06:06:47.847Z,98682.38
2022-10-01T06:09:18.203Z,98687.56
2022-10-01T06:11:47.176Z,98692.75
2022-10-01T06:14:16.329Z,98698.84
2022-10-01T06:16:45.113Z,98694.50
2022-10-01T06:19:13.677Z,98706.66
2022-10-01T06:21:42.180Z,98695.47
2022-10-01T06:24:11.121Z,98692.88
2022-10-01T06:26:41.012Z,98697.28
2022-10-01T06:29:09.594Z,98691.25
2022-10-01T06:31:38.641Z,98697.28
2022-10-01T06:34:07.739Z,98699.03
2022-10-01T06:36:36.292Z,98698.16
2022-10-01T06:39:05.192Z,98689.50
2022-10-01T06:41:34.598Z,98692.97
2022-10-01T06:44:05.099Z,98691.25
2022-10-01T06:46:33.991Z,98686.09
2022-10-01T06:49:02.634Z,98698.25
2022-10-01T06:51:48.629Z,98693.03
2022-10-01T06:54:18.102Z,98691.28
2022-10-01T06:56:46.610Z,98702.56
2022-10-01T06:59:16.671Z,98694.78
2022-10-01T07:01:45.597Z,98689.59
2022-10-01T07:04:14.049Z,98686.13
2022-10-01T07:06:42.619Z,98697.44
2022-10-01T07:09:11.314Z,98695.72
2022-10-01T07:11:41.540Z,98702.63
2022-10-01T07:14:10.452Z,98695.72
2022-10-01T07:16:40.996Z,98702.69
2022-10-01T07:19:09.761Z,98706.13
2022-10-01T07:21:38.650Z,98703.50
2022-10-01T07:24:07.592Z,98707.00
2022-10-01T07:26:36.075Z,98705.28
2022-10-01T07:29:04.724Z,98720.88
2022-10-01T07:31:33.951Z,98718.28
2022-10-01T07:34:04.206Z,98715.72
2022-10-01T07:36:33.428Z,98727.88
2022-10-01T07:39:01.919Z,98724.41
2022-10-01T07:41:30.567Z,98724.41
2022-10-01T07:43:59.070Z,98727.03
2022-10-01T07:46:31.426Z,98718.38
2022-10-01T07:49:03.871Z,98733.13
2022-10-01T07:51:32.984Z,98737.44
2022-10-01T07:54:01.874Z,98736.63
2022-10-01T07:56:30.361Z,98738.28
2022-10-01T07:59:00.064Z,98728.88
2022-10-01T08:01:29.170Z,98741.88
2022-10-01T08:03:57.978Z,98741.88
2022-10-01T08:06:28.103Z,98736.66
2022-10-01T08:08:56.629Z,98741.06
2022-10-01T08:11:25.439Z,98748.00
2022-10-01T08:13:57.212Z,98735.06
2022-10-01T08:16:29.730Z,98742.84
2022-10-01T08:18:58.270Z,98745.47
2022-10-01T08:21:30.297Z,98750.72
2022-10-01T08:23:58.743Z,98742.91
2022-10-01T08:26:27.266Z,98753.38
2022-10-01T08:28:55.878Z,98759.50
2022-10-01T08:31:24.911Z,98759.53
2022-10-01T08:33:53.912Z,98774.28
2022-10-01T08:36:22.661Z,98769.09
2022-10-01T08:38:52.889Z,98777.78
2022-10-01T08:41:46.172Z,98782.16
2022-10-01T08:44:22.158Z,98781.31
2022-10-01T08:46:52.736Z,98779.69
2022-10-01T08:49:25.739Z,98798.75
2022-10-01T08:52:02.397Z,98790.16
2022-10-01T08:54:39.855Z,98790.22
2022-10-01T08:57:15.004Z,98794.56
2022-10-01T08:59:46.048Z,98799.78
2022-10-01T09:02:23.009Z,98794.66
2022-10-01T09:05:01.071Z,98797.28
2022-10-01T09:07:46.205Z,98799.97
2022-10-01T09:10:40.460Z,98804.31
2022-10-01T09:13:51.625Z,98816.44
2022-10-01T09:16:29.025Z,98816.44
2022-10-01T09:19:18.617Z,98817.38
2022-10-01T09:21:57.577Z,98823.50
2022-10-01T09:24:42.140Z,98815.72
2022-10-01T09:27:17.373Z,98808.84
2022-10-01T09:29:50.935Z,98804.50
2022-10-01T09:32:25.642Z,98818.44
2022-10-01T09:34:57.214Z,98817.56
2022-10-01T09:37:34.701Z,98823.69
2022-10-01T09:40:15.834Z,98824.59
2022-10-01T09:42:47.471Z,98819.38
2022-10-01T09:45:18.699Z,98820.31
2022-10-01T09:47:51.727Z,98834.28
2022-10-01T09:50:29.229Z,98830.88
2022-10-01T09:53:00.682Z,98835.22
2022-10-01T09:55:37.343Z,98830.00
2022-10-01T09:58:14.277Z,98838.72
2022-10-01T10:00:43.817Z,98830.03
2022-10-01T10:03:23.250Z,98849.19
2022-10-01T10:05:52.286Z,98850.94
2022-10-01T10:08:28.940Z,98844.91
2022-10-01T10:11:01.566Z,98853.59
2022-10-01T10:13:35.061Z,98858.78
2022-10-01T10:16:11.807Z,98863.16
2022-10-01T10:18:41.533Z,98867.50
2022-10-01T10:21:19.470Z,98869.28
2022-10-01T10:23:50.665Z,98877.94
2022-10-01T10:26:22.946Z,98875.34
2022-10-01T10:28:53.182Z,98873.63
2022-10-01T10:31:25.322Z,98878.81
2022-10-01T10:33:57.908Z,98877.09
2022-10-01T10:36:30.836Z,98879.69
2022-10-01T10:39:00.368Z,98871.03
2022-10-01T10:41:30.898Z,98872.84
2022-10-01T10:44:04.939Z,98873.72
2022-10-01T10:46:37.071Z,98871.16
2022-10-01T10:49:10.768Z,98873.78
2022-10-01T10:51:53.912Z,98886.03
2022-10-01T10:54:27.113Z,98882.59
2022-10-01T10:57:02.575Z,98889.59
2022-10-01T10:59:35.241Z,98884.41
2022-10-01T11:02:07.374Z,98887.94
2022-10-01T11:04:43.407Z,98883.66
2022-10-01T11:07:14.785Z,98895.84
2022-10-01T11:10:05.674Z,98895.00
2022-10-01T11:12:59.821Z,98893.28
2022-10-01T11:15:49.430Z,98908.06
2022-10-01T11:18:35.067Z,98911.53
2022-10-01T11:21:20.679Z,98915.00
2022-10-01T11:24:29.473Z,98917.63
2022-10-01T11:27:06.701Z,98900.28
2022-10-01T11:29:51.010Z,98908.16
2022-10-01T11:32:34.067Z,98912.56
2022-10-01T11:35:34.488Z,98912.56
2022-10-01T11:38:40.438Z,98916.94
2022-10-01T11:41:25.034Z,98917.81
2022-10-01T11:43:57.690Z,98917.94
2022-10-01T11:46:43.157Z,98917.13
2022-10-01T11:49:29.857Z,98918.94
2022-10-01T11:52:10.092Z,98915.50
2022-10-01T11:54:54.317Z,98912.06
2022-10-01T11:57:43.238Z,98911.19
2022-10-01T12:00:14.667Z,98923.38
2022-10-01T12:02:52.198Z,98926.03
2022-10-01T12:05:27.213Z,98917.41
2022-10-01T12:08:02.595Z,98914.84
2022-10-01T12:10:39.786Z,98907.91
2022-10-01T12:13:16.633Z,98917.50
2022-10-01T12:15:51.637Z,98944.44
2022-10-01T12:18:27.252Z,98952.25
2022-10-01T12:21:01.114Z,98958.31
2022-10-01T12:23:33.592Z,98961.81
2022-10-01T12:26:23.188Z,98970.44
2022-10-01T12:29:00.323Z,98974.81
2022-10-01T12:31:39.575Z,98973.09
2022-10-01T12:34:22.476Z,98964.41
2022-10-01T12:37:10.226Z,98969.72
2022-10-01T12:40:00.959Z,98974.06
2022-10-01T12:43:07.216Z,98965.41
2022-10-01T12:45:46.933Z,98976.72
2022-10-01T12:48:22.234Z,98978.53
2022-10-01T12:51:14.265Z,98967.28
2022-10-01T12:53:52.553Z,98982.13
2022-10-01T12:56:30.916Z,98988.28
2022-10-01T12:59:32.342Z,98987.44
2022-10-01T13:02:25.952Z,98978.78
2022-10-01T13:05:20.056Z,98990.09
2022-10-01T13:08:19.983Z,98988.44
2022-10-01T13:11:06.741Z,98985.00
2022-10-01T13:13:35.577Z,98992.84
2022-10-01T13:16:13.046Z,98992.94
2022-10-01T13:18:54.731Z,98985.19
2022-10-01T13:21:36.838Z,98988.69
2022-10-01T13:24:13.748Z,98989.63
2022-10-01T13:26:50.421Z,99002.75
2022-10-01T13:29:36.176Z,98997.56
2022-10-01T13:32:26.144Z,98992.41
2022-10-01T13:34:55.527Z,98999.41
2022-10-01T13:37:45.146Z,99014.25
2022-10-01T13:40:29.407Z,99002.06
2022-10-01T13:43:02.035Z,99019.47
2022-10-01T13:45:40.369Z,99008.16
2022-10-01T13:48:20.263Z,99012.53
2022-10-01T13:51:10.859Z,99020.34
2022-10-01T13:54:26.205Z,99042.94
2022-10-01T13:56:55.441Z,99049.84
2022-10-01T13:59:35.919Z,99051.53
2022-10-01T14:02:32.408Z,99062.81
2022-10-01T14:05:39.871Z,99047.94
2022-10-01T14:08:38.580Z,99072.28
2022-10-01T14:15:10.865Z,99081.72
2022-10-01T14:17:40.076Z,99089.47
2022-10-01T14:20:11.181Z,99092.97
2022-10-01T14:23:01.508Z,99091.22
2022-10-01T14:25:52.759Z,99099.94
2022-10-01T14:28:59.932Z,99106.91
2022-10-01T14:31:47.449Z,99115.66
2022-10-01T14:34:42.300Z,99123.47
2022-10-01T14:37:17.449Z,99120.03
2022-10-01T14:39:46.756Z,99129.59
2022-10-01T14:42:18.964Z,99134.00
2022-10-01T14:44:48.834Z,99135.72
2022-10-01T14:47:22.730Z,99142.63
2022-10-01T14:49:56.304Z,99139.19
2022-10-01T14:52:27.792Z,99148.75
2022-10-01T14:55:03.886Z,99139.13
2022-10-01T14:57:36.534Z,99145.16
2022-10-01T15:00:11.181Z,99152.09
2022-10-01T15:02:48.827Z,99165.13
2022-10-01T15:05:24.748Z,99165.13
2022-10-01T15:07:53.833Z,99164.22
2022-10-01T15:10:26.867Z,99164.19
2022-10-01T15:12:57.154Z,99163.31
2022-10-01T15:15:41.122Z,99173.72
2022-10-01T15:18:16.093Z,99175.47
2022-10-01T15:20:56.984Z,99182.41
2022-10-01T15:23:27.533Z,99185.00
2022-10-01T15:25:58.843Z,99190.22
2022-10-01T15:28:31.997Z,99194.59
2022-10-01T15:31:03.233Z,99193.75
2022-10-01T15:33:36.131Z,99198.13
2022-10-01T15:36:07.517Z,99202.44
2022-10-01T15:38:37.359Z,99202.44
2022-10-01T15:41:30.661Z,99208.53
2022-10-01T15:44:04.988Z,99204.19
2022-10-01T15:46:35.945Z,99215.50
2022-10-01T15:49:20.382Z,99216.38
2022-10-01T15:52:29.451Z,99232.88
2022-10-01T15:55:00.896Z,99223.28
2022-10-01T15:57:33.592Z,99229.38
2022-10-01T16:00:02.686Z,99221.50
2022-10-01T16:02:34.148Z,99237.19
2022-10-01T16:05:07.493Z,99238.94
2022-10-01T16:07:36.372Z,99244.16
2022-10-01T16:10:26.435Z,99249.38
2022-10-01T16:12:54.916Z,99251.13
2022-10-01T16:15:28.817Z,99262.44
2022-10-01T16:18:00.157Z,99254.59
2022-10-01T16:20:39.061Z,99283.31
2022-10-01T16:23:37.125Z,99278.91
2022-10-01T16:26:08.320Z,99283.19
2022-10-01T16:28:37.555Z,99280.59
2022-10-01T16:31:06.340Z,99287.53
2022-10-01T16:33:34.763Z,99303.22
2022-10-01T16:36:12.270Z,99287.56
2022-10-01T16:38:41.031Z,99293.63
2022-10-01T16:41:11.174Z,99301.44
2022-10-01T16:43:39.804Z,99303.09
2022-10-01T16:46:08.398Z,99315.25
2022-10-01T16:48:37.074Z,99322.19
2022-10-01T16:51:05.996Z,99320.47
2022-10-01T16:53:36.004Z,99324.81
2022-10-01T16:56:04.968Z,99333.50
2022-10-01T16:58:34.097Z,99335.25
2022-10-01T17:01:07.854Z,99341.31
2022-10-01T17:03:37.211Z,99348.25
2022-10-01T17:06:05.921Z,99358.72
2022-10-01T17:08:36.005Z,99356.97
2022-10-01T17:11:06.311Z,99362.19
2022-10-01T17:13:36.308Z,99357.78
2022-10-01T17:16:06.482Z,99363.09
2022-10-01T17:18:35.371Z,99363.09
2022-10-01T17:21:05.924Z,99370.91
2022-10-01T17:23:36.746Z,99378.72
2022-10-01T17:26:08.436Z,99376.13
2022-10-01T17:28:37.550Z,99389.97
2022-10-01T17:31:08.545Z,99392.63
2022-10-01T17:33:37.088Z,99394.31
2022-10-01T17:36:08.710Z,99398.59
2022-10-01T17:38:40.247Z,99408.97
2022-10-01T17:41:09.076Z,99413.31
2022-10-01T17:43:39.129Z,99426.34
2022-10-01T17:46:43.564Z,99425.38
2022-10-01T17:49:13.160Z,99436.66
2022-10-01T17:51:41.724Z,99441.78
2022-10-01T17:54:11.812Z,99446.13
2022-10-01T17:56:41.970Z,99458.28
2022-10-01T17:59:10.876Z,99453.88
2022-10-01T18:01:41.685Z,99459.03
2022-10-01T18:04:12.430Z,99471.19
2022-10-01T18:06:41.406Z,99472.84
2022-10-01T18:09:11.270Z,99476.28
2022-10-01T18:11:39.892Z,99478.00
2022-10-01T18:14:08.550Z,99487.56
2022-10-01T18:16:37.743Z,99494.44
2022-10-01T18:21:58.801Z,99504.88
2022-10-01T18:24:29.642Z,99506.66
2022-10-01T18:26:58.485Z,99504.94
2022-10-01T18:29:28.800Z,99514.50
2022-10-01T18:32:05.671Z,99517.13
2022-10-01T18:34:41.154Z,99528.38
2022-10-01T18:37:25.241Z,99522.28
2022-10-01T18:40:01.311Z,99529.19
2022-10-01T18:42:42.825Z,99530.03
2022-10-01T18:45:18.532Z,99534.31
2022-10-01T18:48:06.706Z,99535.16
2022-10-01T18:50:44.655Z,99549.06
2022-10-01T18:53:36.485Z,99553.34
2022-10-01T18:56:29.958Z,99554.19
2022-10-01T18:59:23.302Z,99569.81
2022-10-01T19:02:09.440Z,99571.50
2022-10-01T19:05:16.854Z,99575.75
2022-10-01T19:07:59.991Z,99576.56
2022-10-01T19:10:38.922Z,99591.28
2022-10-01T19:13:20.591Z,99597.31
2022-10-01T19:16:06.003Z,99600.69
2022-10-01T19:19:08.642Z,99606.78
2022-10-01T19:21:48.690Z,99614.59
2022-10-01T19:24:37.485Z,99610.22
2022-10-01T19:27:19.973Z,99612.81
2022-10-01T19:30:04.389Z,99610.22
2022-10-01T19:32:42.519Z,99617.19
2022-10-01T19:35:20.299Z,99619.78
2022-10-01T19:37:53.697Z,99622.34
2022-10-01T19:40:30.265Z,99621.47
2022-10-01T19:43:08.373Z,99630.13
2022-10-01T19:45:51.759Z,99632.69
2022-10-01T19:48:26.151Z,99639.63
2022-10-01T19:51:03.920Z,99646.41
2022-10-01T19:53:37.388Z,99645.53
2022-10-01T19:56:07.473Z,99649.00
2022-10-01T19:58:36.041Z,99658.50
2022-10-01T20:01:06.808Z,99656.78
2022-10-01T20:03:40.923Z,99657.63
2022-10-01T20:06:17.990Z,99661.06
2022-10-01T20:08:53.028Z,99660.19
2022-10-01T20:11:30.821Z,99662.78
2022-10-01T20:14:34.354Z,99666.22
2022-10-01T20:17:09.879Z,99661.00
2022-10-01T20:19:44.847Z,99670.59
2022-10-01T20:22:20.821Z,99675.75
2022-10-01T20:25:00.928Z,99668.75
2022-10-01T20:27:40.384Z,99680.97
2022-10-01T20:30:12.659Z,99687.06
2022-10-01T20:32:51.921Z,99687.06
2022-10-01T20:35:30.912Z,99694.78
2022-10-01T20:38:07.286Z,99685.19
2022-10-01T20:40:43.095Z,99693.00
2022-10-01T20:43:17.747Z,99692.09
2022-10-01T20:45:51.046Z,99705.09
2022-10-01T20:48:25.718Z,99697.28
2022-10-01T20:51:01.794Z,99699.81
2022-10-01T20:53:38.955Z,99712.84
2022-10-01T20:56:15.470Z,99711.97
2022-10-01T20:58:50.060Z,99714.56
2022-10-01T21:01:23.868Z,99723.19
2022-10-01T21:04:02.583Z,99723.19
2022-10-01T21:06:37.204Z,99718.78
2022-10-01T21:09:16.625Z,99732.63
2022-10-01T21:11:50.829Z,99721.28
2022-10-01T21:14:25.532Z,99729.97
2022-10-01T21:17:12.219Z,99736.91
2022-10-01T21:20:06.166Z,99730.75
2022-10-01T21:23:03.125Z,99744.66
2022-10-01T21:25:43.946Z,99734.22
2022-10-01T21:28:32.849Z,99738.56
2022-10-01T21:31:19.369Z,99739.34
2022-10-01T21:33:54.018Z,99745.38
2022-10-01T21:36:34.338Z,99746.25
2022-10-01T21:39:12.809Z,99746.25
2022-10-01T21:41:55.460Z,99745.38
2022-10-01T21:45:01.175Z,99748.84
2022-10-01T21:47:50.637Z,99752.28
2022-10-01T21:50:32.213Z,99765.31
2022-10-01T21:53:25.445Z,99769.69
2022-10-01T21:56:19.316Z,99773.06
2022-10-01T21:59:07.058Z,99772.19
2022-10-01T22:01:56.960Z,99781.66
2022-10-01T22:04:38.337Z,99777.34
2022-10-01T22:07:21.994Z,99777.31
2022-10-01T22:10:05.588Z,99777.31
2022-10-01T22:12:40.311Z,99783.38
2022-10-01T22:15:22.221Z,99789.41
2022-10-01T22:17:52.838Z,99787.63
2022-10-01T22:20:25.811Z,99792.78
2022-10-01T22:23:01.353Z,99798.88
2022-10-01T22:25:33.262Z,99804.91
2022-10-01T22:28:07.328Z,99807.47
2022-10-01T22:30:40.158Z,99813.50
2022-10-01T22:33:14.216Z,99806.50
2022-10-01T22:35:50.428Z,99808.22
2022-10-01T22:38:25.142Z,99812.50
2022-10-01T22:41:12.060Z,99808.13
2022-10-01T22:43:42.781Z,99806.34
2022-10-01T22:46:54.387Z,99806.28
2022-10-01T22:49:40.180Z,99808.88
2022-10-01T22:52:22.176Z,99810.53
2022-10-01T22:55:06.432Z,99812.31
2022-10-01T22:57:52.288Z,99809.72
2022-10-01T23:00:22.040Z,99819.22
2022-10-01T23:03:07.441Z,99817.50
2022-10-01T23:05:49.719Z,99817.44
2022-10-01T23:08:30.072Z,99823.47
2022-10-01T23:11:11.804Z,99820.88
2022-10-01T23:13:53.207Z,99825.97
2022-10-01T23:16:31.141Z,99824.22
2022-10-01T23:19:16.953Z,99827.66
2022-10-01T23:21:55.664Z,99823.28
2022-10-01T23:24:43.927Z,99813.72
2022-10-01T23:27:24.528Z,99816.25
2022-10-01T23:30:09.897Z,99819.72
2022-10-01T23:33:15.280Z,99824.88
2022-10-01T23:35:56.746Z,99822.28
2022-10-01T23:38:49.500Z,99823.13
2022-10-01T23:41:25.214Z,99823.13
2022-10-01T23:44:02.371Z,99830.03
2022-10-01T23:46:34.877Z,99835.25
2022-10-01T23:49:08.370Z,99834.41
2022-10-01T23:51:45.387Z,99832.59
2022-10-01T23:54:22.524Z,99839.56
2022-10-01T23:56:56.622Z,99843.84
2022-10-01T23:59:31.106Z,99836.91
